createdAt,value
2018-09-02T00:01:54.839Z,13.40
2018-09-02T00:06:56.993Z,13.30
2018-09-02T00:12:00.421Z,13.30
2018-09-02T00:17:03.709Z,13.40
2018-09-02T00:22:05.906Z,13.30
2018-09-02T00:27:08.090Z,13.30
2018-09-02T00:32:11.534Z,13.30
2018-09-02T00:37:13.720Z,13.40
2018-09-02T00:42:15.906Z,13.40
2018-09-02T00:47:20.215Z,13.50
2018-09-02T00:52:25.193Z,13.50
2018-09-02T00:57:29.714Z,13.50
2018-09-02T01:02:34.190Z,13.40
2018-09-02T01:07:36.774Z,13.30
2018-09-02T01:12:38.969Z,13.30
2018-09-02T01:17:43.386Z,13.30
2018-09-02T01:22:48.970Z,13.20
2018-09-02T01:27:52.890Z,13.30
2018-09-02T01:32:56.817Z,13.30
2018-09-02T01:37:59.518Z,13.40
2018-09-02T01:43:04.742Z,13.40
2018-09-02T01:48:06.925Z,13.40
2018-09-02T01:53:10.792Z,13.50
2018-09-02T01:58:13.310Z,13.50
2018-09-02T02:03:17.453Z,13.50
2018-09-02T02:08:22.541Z,13.60
2018-09-02T02:13:27.531Z,13.60
2018-09-02T02:18:32.066Z,13.60
2018-09-02T02:23:37.113Z,13.60
2018-09-02T02:28:41.039Z,13.70
2018-09-02T02:33:45.752Z,13.70
2018-09-02T02:38:49.954Z,13.70
2018-09-02T02:43:52.317Z,14.00
2018-09-02T02:48:57.142Z,14.20
2018-09-02T02:54:01.979Z,14.30
2018-09-02T02:59:07.592Z,14.60
2018-09-02T03:04:11.358Z,14.60
2018-09-02T03:09:19.662Z,14.60
2018-09-02T03:14:24.305Z,14.60
2018-09-02T03:19:27.840Z,14.60
2018-09-02T03:24:32.628Z,14.70
2018-09-02T03:29:38.690Z,14.80
2018-09-02T03:34:43.743Z,14.80
2018-09-02T03:39:47.949Z,14.90
2018-09-02T03:44:51.360Z,14.90
2018-09-02T03:49:55.412Z,14.90
2018-09-02T03:55:00.204Z,14.80
2018-09-02T04:00:04.059Z,14.80
2018-09-02T04:05:07.721Z,14.80
2018-09-02T04:10:10.794Z,14.80
2018-09-02T04:15:14.117Z,14.80
2018-09-02T04:20:21.155Z,14.80
2018-09-02T04:25:25.364Z,14.80
2018-09-02T04:30:28.441Z,14.70
2018-09-02T04:35:32.954Z,14.70
2018-09-02T04:40:37.674Z,14.70
2018-09-02T04:45:39.834Z,14.60
2018-09-02T04:50:42.049Z,14.60
2018-09-02T04:55:44.832Z,14.60
2018-09-02T05:00:46.982Z,14.50
2018-09-02T05:05:49.133Z,14.50
2018-09-02T05:10:51.317Z,14.50
2018-09-02T05:15:54.309Z,14.50
2018-09-02T05:20:57.447Z,14.40
2018-09-02T05:25:59.772Z,14.40
2018-09-02T05:31:03.046Z,14.30
2018-09-02T05:36:05.473Z,14.30
2018-09-02T05:41:08.834Z,14.30
2018-09-02T05:46:10.982Z,14.20
2018-09-02T05:51:13.147Z,14.20
2018-09-02T05:56:15.316Z,14.20
2018-09-02T06:01:19.249Z,14.20
2018-09-02T06:06:21.582Z,14.30
2018-09-02T06:11:24.257Z,14.30
2018-09-02T06:16:26.446Z,14.40
2018-09-02T06:21:29.769Z,14.40
2018-09-02T06:26:33.046Z,14.50
2018-09-02T06:31:37.064Z,14.50
2018-09-02T06:36:40.300Z,14.60
2018-09-02T06:41:42.591Z,14.60
2018-09-02T06:46:44.870Z,14.60
2018-09-02T06:51:47.960Z,14.60
2018-09-02T06:56:50.853Z,14.70
2018-09-02T07:01:53.271Z,14.90
2018-09-02T07:06:55.906Z,15.10
2018-09-02T07:11:58.582Z,15.40
2018-09-02T07:17:00.775Z,15.50
2018-09-02T07:22:03.741Z,15.60
2018-09-02T07:27:06.073Z,15.70
2018-09-02T07:32:08.950Z,15.80
2018-09-02T07:37:11.884Z,15.80
2018-09-02T07:42:15.445Z,15.80
2018-09-02T07:47:18.765Z,16.00
2018-09-02T07:52:20.956Z,16.90
2018-09-02T07:57:23.290Z,16.70
2018-09-02T08:02:26.514Z,16.60
2018-09-02T08:07:29.013Z,17.20
2018-09-02T08:12:31.201Z,17.60
2018-09-02T08:17:33.674Z,17.40
2018-09-02T08:22:37.412Z,17.10
2018-09-02T08:27:40.274Z,17.20
2018-09-02T08:32:42.601Z,17.30
2018-09-02T08:37:44.890Z,17.90
2018-09-02T08:42:48.574Z,18.10
2018-09-02T08:47:50.788Z,18.30
2018-09-02T08:52:52.937Z,19.20
2018-09-02T08:57:55.122Z,19.70
2018-09-02T09:02:57.309Z,19.20
2018-09-02T09:08:00.426Z,19.40
2018-09-02T09:13:02.642Z,18.30
2018-09-02T09:18:06.782Z,18.30
2018-09-02T09:23:09.258Z,18.40
2018-09-02T09:28:12.817Z,18.70
2018-09-02T09:33:15.111Z,18.80
2018-09-02T09:38:18.512Z,19.00
2018-09-02T09:43:20.724Z,18.90
2018-09-02T09:48:22.883Z,18.90
2018-09-02T09:53:25.013Z,19.00
2018-09-02T09:58:27.773Z,19.20
2018-09-02T10:03:30.135Z,19.50
2018-09-02T10:08:34.409Z,19.90
2018-09-02T10:13:36.898Z,19.40
2018-09-02T10:18:39.066Z,19.80
2018-09-02T10:23:41.471Z,19.70
2018-09-02T10:28:43.876Z,20.00
2018-09-02T10:33:46.029Z,19.70
2018-09-02T10:38:48.829Z,19.70
2018-09-02T10:43:51.003Z,20.00
2018-09-02T10:48:54.545Z,20.20
2018-09-02T10:53:57.398Z,20.30
2018-09-02T10:59:00.873Z,20.20
2018-09-02T11:04:03.032Z,19.90
2018-09-02T11:09:07.594Z,19.90
2018-09-02T11:14:10.038Z,20.00
2018-09-02T11:19:12.884Z,19.90
2018-09-02T11:24:16.335Z,20.00
2018-09-02T11:29:20.530Z,20.10
2018-09-02T11:34:23.232Z,20.00
2018-09-02T11:39:25.493Z,20.60
2018-09-02T11:44:28.613Z,20.60
2018-09-02T11:49:31.545Z,20.40
2018-09-02T11:54:33.722Z,20.30
2018-09-02T11:59:37.134Z,20.00
2018-09-02T12:04:39.373Z,19.90
2018-09-02T12:09:42.161Z,20.20
2018-09-02T12:14:45.038Z,20.10
2018-09-02T12:19:48.820Z,20.30
2018-09-02T12:24:52.407Z,20.40
2018-09-02T12:29:54.677Z,20.50
2018-09-02T12:34:56.826Z,20.10
2018-09-02T12:39:59.114Z,20.00
2018-09-02T12:45:02.534Z,19.90
2018-09-02T12:50:04.745Z,19.90
2018-09-02T12:55:07.863Z,19.90
2018-09-02T13:00:10.019Z,19.80
2018-09-02T13:05:12.173Z,19.90
2018-09-02T13:10:14.369Z,19.90
2018-09-02T13:15:16.643Z,19.80
2018-09-02T13:20:18.830Z,19.80
2018-09-02T13:25:21.082Z,19.80
2018-09-02T13:30:24.122Z,19.90
2018-09-02T13:35:26.281Z,19.70
2018-09-02T13:40:28.463Z,19.80
2018-09-02T13:45:30.608Z,19.60
2018-09-02T13:50:34.076Z,19.60
2018-09-02T13:55:36.554Z,19.50
2018-09-02T14:00:38.728Z,19.40
2018-09-02T14:05:40.977Z,19.50
2018-09-02T14:10:43.451Z,19.40
2018-09-02T14:15:46.258Z,19.30
2018-09-02T14:20:50.003Z,19.20
2018-09-02T14:25:52.491Z,19.20
2018-09-02T14:30:57.793Z,19.20
2018-09-02T14:35:59.945Z,19.10
2018-09-02T14:41:02.436Z,19.00
2018-09-02T14:46:04.789Z,18.90
2018-09-02T14:51:08.074Z,18.90
2018-09-02T14:56:10.370Z,18.90
2018-09-02T15:01:13.733Z,18.80
2018-09-02T15:06:16.147Z,18.80
2018-09-02T15:11:18.332Z,18.80
2018-09-02T15:16:20.770Z,18.70
2018-09-02T15:21:23.057Z,18.60
2018-09-02T15:26:25.087Z,18.60
2018-09-02T15:31:27.322Z,18.50
2018-09-02T15:36:29.710Z,18.40
2018-09-02T15:41:31.921Z,18.40
2018-09-02T15:46:34.058Z,18.40
2018-09-02T15:51:37.277Z,18.30
2018-09-02T15:56:39.829Z,18.40
2018-09-02T16:01:42.706Z,18.40
2018-09-02T16:06:46.173Z,18.30
2018-09-02T16:11:50.164Z,18.20
2018-09-02T16:16:52.301Z,18.20
2018-09-02T16:21:54.469Z,18.10
2018-09-02T16:26:56.662Z,18.20
2018-09-02T16:31:59.797Z,18.00
2018-09-02T16:37:03.143Z,18.00
2018-09-02T16:42:05.394Z,18.00
2018-09-02T16:47:08.175Z,18.40
2018-09-02T16:52:10.615Z,18.50
2018-09-02T16:57:13.185Z,18.30
2018-09-02T17:02:15.485Z,18.10
2018-09-02T17:07:17.638Z,17.80
2018-09-02T17:12:19.888Z,17.90
2018-09-02T17:17:22.114Z,17.80
2018-09-02T17:22:26.112Z,17.90
2018-09-02T17:27:28.514Z,17.80
2018-09-02T17:32:30.732Z,17.80
2018-09-02T17:37:32.927Z,17.80
2018-09-02T17:42:35.101Z,17.80
2018-09-02T17:47:37.858Z,17.70
2018-09-02T17:52:40.457Z,17.70
2018-09-02T17:57:43.706Z,17.70
2018-09-02T18:02:46.220Z,17.70
2018-09-02T18:07:48.634Z,17.60
2018-09-02T18:12:50.849Z,17.60
2018-09-02T18:17:53.255Z,17.60
2018-09-02T18:22:55.921Z,17.60
2018-09-02T18:28:00.371Z,17.60
2018-09-02T18:33:02.603Z,17.50
2018-09-02T18:38:05.213Z,17.50
2018-09-02T18:43:07.574Z,17.50
2018-09-02T18:48:09.834Z,17.50
2018-09-02T18:53:11.974Z,17.40
2018-09-02T18:58:14.194Z,17.50
2018-09-02T19:03:17.849Z,17.40
2018-09-02T19:08:20.044Z,17.40
2018-09-02T19:13:22.309Z,17.40
2018-09-02T19:18:24.453Z,17.40
2018-09-02T19:23:26.690Z,17.30
2018-09-02T19:28:28.850Z,17.30
2018-09-02T19:33:31.009Z,17.30
2018-09-02T19:38:34.058Z,17.40
2018-09-02T19:43:36.421Z,17.30
2018-09-02T19:48:38.619Z,17.30
2018-09-02T19:53:40.778Z,17.30
2018-09-02T19:58:42.936Z,17.30
2018-09-02T20:03:45.257Z,17.30
2018-09-02T20:08:48.114Z,17.30
2018-09-02T20:13:50.313Z,17.30
2018-09-02T20:18:52.917Z,17.30
2018-09-02T20:23:55.520Z,17.30
2018-09-02T20:28:58.601Z,17.20
2018-09-02T20:34:00.897Z,17.30
2018-09-02T20:39:05.856Z,17.20
2018-09-02T20:44:08.318Z,17.20
2018-09-02T20:49:11.006Z,17.10
2018-09-02T20:54:13.933Z,17.10
2018-09-02T20:59:17.397Z,17.10
2018-09-02T21:04:20.967Z,17.00
2018-09-02T21:09:24.103Z,17.00
2018-09-02T21:14:26.618Z,17.00
2018-09-02T21:19:29.006Z,17.00
2018-09-02T21:24:31.148Z,17.00
2018-09-02T21:29:34.318Z,16.90
2018-09-02T21:34:36.458Z,16.90
2018-09-02T21:39:38.606Z,16.90
2018-09-02T21:44:40.750Z,16.90
2018-09-02T21:49:43.274Z,16.90
2018-09-02T21:54:45.429Z,16.90
2018-09-02T21:59:47.643Z,16.90
2018-09-02T22:04:49.822Z,16.90
2018-09-02T22:09:51.957Z,16.80
2018-09-02T22:14:54.134Z,16.80
2018-09-02T22:19:56.301Z,16.80
2018-09-02T22:24:58.475Z,16.70
2018-09-02T22:30:02.121Z,16.70
2018-09-02T22:35:04.301Z,16.70
2018-09-02T22:40:07.760Z,16.50
2018-09-02T22:45:10.093Z,16.40
2018-09-02T22:50:12.289Z,16.40
2018-09-02T22:55:15.721Z,16.40
2018-09-02T23:00:17.868Z,16.40
2018-09-02T23:05:20.042Z,16.40
2018-09-02T23:10:23.649Z,16.30
2018-09-02T23:15:25.922Z,16.30
2018-09-02T23:20:29.765Z,16.30
2018-09-02T23:25:32.650Z,16.20
2018-09-02T23:30:34.985Z,16.20
2018-09-02T23:35:37.181Z,16.20
2018-09-02T23:40:39.642Z,16.10
2018-09-02T23:45:43.236Z,16.10
2018-09-02T23:50:46.226Z,16.10
2018-09-02T23:55:49.345Z,16.10
